• Join FlightAware (Why Join?)
  • Login
  • US Flag 
Rudolph Flight #1: Arrived! 
10:19PM EST


 

Airport Tracker/Info


-or-


 

Live Flight TrackerFlight Track Log ✈ N75ZM ✈ 12-Aug-2013 ✈ KGDW - KSCX

Flight Track Log - Related Links

Times and Time Zones

All times are in EDT time to prevent confusion due to time zone crossing. See the N75ZM flight status page for this flight to view local times or setup timezone preferences in your user account.

Time Position Orientation Groundspeed Altitude Reporting Facility
EDT Latitude Longitude Course Direction KTS MPH feet Rate Location/Type
10:27AM 43.7695 -84.6800 220° Southwest  Level FlightAware Approximate
10:28AM 43.7359 -84.7141 216° Southwest  Level FlightAware Approximate
10:28AM 43.5547 -84.9794 219° Southwest 152 175 8,000  Level Chicago Center
10:29AM 43.7036 -84.7505 219° Southwest  Level FlightAware Approximate
10:29AM 43.5203 -85.0153 217° Southwest 153 176 8,000  Level Chicago Center
10:30AM 43.6714 -84.7872 219° Southwest  Level FlightAware Approximate
10:30AM 43.4853 -85.0531 218° Southwest 157 181 8,000  Level Chicago Center
10:31AM 43.6391 -84.8238 219° Southwest  Level FlightAware Approximate
10:31AM 43.4503 -85.0903 218° Southwest 159 183 8,000  Level Chicago Center
10:32AM 43.6069 -84.8603 219° Southwest  Level FlightAware Approximate
10:32AM 43.4164 -85.1261 218° Southwest 156 180 8,000  Level Chicago Center
10:33AM 43.5747 -84.8968 219° Southwest  Level FlightAware Approximate
10:33AM 43.3739 -85.1692 216° Southwest 157 181 8,000  Level Chicago Center
10:34AM 43.3394 -85.2056 218° Southwest 157 181 8,000  Level Chicago Center
10:35AM 43.3053 -85.2422 218° Southwest 156 180 8,000  Level Chicago Center
10:36AM 43.2703 -85.2786 217° Southwest 157 181 8,000  Level Chicago Center
10:37AM 43.2344 -85.3156 217° Southwest 159 183 8,000  Level Chicago Center
10:38AM 43.1992 -85.3531 218° Southwest 160 184 8,000  Level Chicago Center
10:39AM 43.1561 -85.3961 216° Southwest 160 184 8,000  Level Chicago Center
10:40AM 43.1214 -85.4331 218° Southwest 160 184 8,000  Level Chicago Center
10:41AM 43.0869 -85.4686 217° Southwest 157 181 8,000  Level Chicago Center
10:42AM 43.0517 -85.5036 216° Southwest 157 181 8,000  Level Chicago Center
10:43AM 43.0175 -85.5394 217° Southwest 156 180 8,000  Level Chicago Center
10:44AM 42.9833 -85.5747 217° Southwest 154 177 8,000  Level Chicago Center
10:45AM 42.9433 -85.6164 217° Southwest 152 175 8,000  Level Chicago Center
10:46AM 42.9106 -85.6506 217° Southwest 150 173 8,000 60 Level Chicago Center
10:47AM 42.8775 -85.6850 217° Southwest 148 170 8,200  Climbing Chicago Center
10:48AM 42.8458 -85.7186 218° Southwest 145 167 8,100 -60 Descending Chicago Center
10:50AM 42.8139 -85.7511 217° Southwest 143 165 8,100  Level Chicago Center
10:51AM 42.7761 -85.7731 203° Southwest 147 169 8,100  Level Chicago Center
10:52AM 42.7375 -85.7947 202° Southwest 149 171 8,100  Level Chicago Center
10:53AM 42.6911 -85.8208 202° Southwest 150 173 8,100  Level Chicago Center
10:54AM 42.6514 -85.8428 202° Southwest 152 175 8,100  Level Chicago Center
10:55AM 42.6117 -85.8650 202° Southwest 154 177 8,100  Level Chicago Center
10:56AM 42.5728 -85.8861 202° Southwest 152 175 8,100  Level Chicago Center
10:57AM 42.5350 -85.9078 203° Southwest 149 171 8,100  Level Chicago Center
10:58AM 42.4964 -85.9289 202° Southwest 149 171 8,100  Level Chicago Center
10:59AM 42.4489 -85.9547 202° Southwest 152 175 8,100  Level Chicago Center
11:00AM 42.4106 -85.9753 202° Southwest 151 174 8,100  Level Chicago Center
11:01AM 42.3714 -85.9981 203° Southwest 151 174 8,100  Level Chicago Center
11:02AM 42.3336 -86.0192 202° Southwest 149 171 8,100  Level Chicago Center
11:03AM 42.2947 -86.0400 202° Southwest 149 171 8,100  Level Chicago Center
11:04AM 42.2553 -86.0622 203° Southwest 144 166 8,100  Level Chicago Center
11:05AM 42.2186 -86.0825 202° Southwest 144 166 8,100  Level Chicago Center
11:06AM 42.1822 -86.1008 200° South 142 163 8,100  Level Chicago Center
11:07AM 42.1358 -86.1250 201° Southwest 147 169 8,100  Level Chicago Center
11:08AM 42.0925 -86.1147 170° South 157 181 8,100  Level Chicago Center
11:09AM 42.0492 -86.1094 175° South 156 180 8,100  Level Chicago Center
11:10AM 42.0056 -86.1019 173° South 158 182 8,100  Level Chicago Center
11:11AM 41.9619 -86.0961 174° South 159 183 8,100  Level Chicago Center
11:12AM 41.9092 -86.0897 175° South 158 182 8,100  Level Chicago Center
11:13AM 41.8653 -86.0828 173° South 159 183 8,100  Level Chicago Center
11:14AM 41.8217 -86.0764 174° South 158 182 8,100  Level Chicago Center
11:15AM 41.7775 -86.0703 174° South 159 183 8,100  Level Chicago Center
11:16AM 41.7350 -86.0639 174° South 156 180 8,100  Level Chicago Center
11:17AM 41.6906 -86.0569 173° South 159 183 8,100  Level Chicago Center
11:18AM 41.6381 -86.0503 175° South 159 183 8,100  Level Chicago Center
11:20AM 41.5947 -86.0442 174° South 158 182 8,100  Level Chicago Center
11:21AM 41.5511 -86.0381 174° South 157 181 8,100  Level Chicago Center
11:22AM 41.5075 -86.0308 173° South 158 182 8,100  Level Chicago Center
11:23AM 41.4619 -86.0261 176° South 162 186 8,100  Level Chicago Center
11:24AM 41.4175 -86.0197 174° South 162 186 8,100  Level Chicago Center
11:25AM 41.3631 -86.0117 174° South 163 188 8,100  Level Chicago Center
11:26AM 41.3178 -86.0058 174° South 165 190 8,100  Level Chicago Center
11:27AM 41.2731 -85.9983 173° South 163 188 8,100  Level Chicago Center
11:28AM 41.2294 -85.9928 175° South 159 183 8,100  Level Chicago Center
11:29AM 41.1844 -85.9864 174° South 160 184 8,100  Level Chicago Center
11:30AM 41.1311 -85.9789 174° South 162 186 8,100  Level Chicago Center
11:30AM 41.1056 -85.9758 175° South 163 188 8,100  Level Chicago Center
11:31AM 41.0722 -85.9714 174° South 163 188 8,100  Level Chicago Center
11:32AM 41.0419 -85.9667 173° South 162 186 8,100  Level Chicago Center
11:33AM 40.9969 -85.9617 175° South 161 185 8,100  Level Chicago Center
11:34AM 40.9519 -85.9544 173° South 163 188 8,100  Level Chicago Center
11:35AM 40.9069 -85.9492 175° South 163 188 8,100  Level Chicago Center
11:36AM 40.8533 -85.9414 174° South 162 186 8,100  Level Chicago Center
11:37AM 40.8081 -85.9358 175° South 162 186 8,100  Level Chicago Center
11:38AM 40.7631 -85.9275 172° South 163 188 8,100  Level Chicago Center
11:39AM 40.7186 -85.9225 175° South 162 186 8,100  Level Chicago Center
11:40AM 40.6681 -85.9144 173° South 161 185 8,100  Level Chicago Center
11:41AM 40.6228 -85.9072 173° South 163 188 8,100  Level Chicago Center
11:42AM 40.5783 -85.9019 175° South 161 185 8,100  Level Chicago Center
11:43AM 40.5328 -85.8956 174° South 163 188 8,100  Level Chicago Center
11:44AM 40.4864 -85.8894 174° South 166 191 8,100  Level Chicago Center
11:45AM 40.4331 -85.8811 173° South 162 186 8,100  Level Chicago Center
11:46AM 40.3881 -85.8753 174° South 162 186 8,100  Level Chicago Center
11:47AM 40.3433 -85.8706 175° South 163 188 8,100  Level Indianapolis Center
11:48AM 40.2978 -85.8650 175° South 163 188 8,100  Level Indianapolis Center
11:49AM 40.2525 -85.8586 174° South 163 188 8,100  Level Indianapolis Center
11:50AM 40.2075 -85.8525 174° South 163 188 8,100  Level Indianapolis Center
11:51AM 40.1631 -85.8461 174° South 162 186 8,100  Level Indianapolis Center
11:53AM 40.1175 -85.8394 174° South 164 189 8,100  Level Indianapolis Center
11:54AM 40.0728 -85.8347 175° South 162 186 8,100  Level Indianapolis Center
11:55AM 40.0286 -85.8289 174° South 160 184 8,100  Level Indianapolis Center
11:56AM 39.9761 -85.8222 174° South 159 183 8,100  Level Indianapolis Center
11:57AM 39.9325 -85.8156 173° South 158 182 8,100  Level Indianapolis Center
11:58AM 39.8883 -85.8100 174° South 158 182 8,100  Level Indianapolis Center
11:59AM 39.8433 -85.8039 174° South 161 185 8,100  Level Indianapolis Center
12:00PM 39.7983 -85.7972 174° South 162 186 8,100  Level Indianapolis Center
12:01PM 39.7544 -85.7919 175° South 160 184 8,100  Level Indianapolis Center
12:02PM 39.7100 -85.7864 175° South 161 185 8,100  Level Indianapolis Center
12:03PM 39.6658 -85.7811 175° South 161 185 8,100  Level Indianapolis Center
12:04PM 39.6125 -85.7728 173° South 160 184 8,100  Level Indianapolis Center
12:05PM 39.5683 -85.7686 176° South 160 184 8,100  Level Indianapolis Center
12:06PM 39.5236 -85.7619 173° South 161 185 8,100  Level Indianapolis Center
12:07PM 39.4797 -85.7553 173° South 160 184 8,100  Level Indianapolis Center
12:08PM 39.4358 -85.7489 174° South 159 183 8,100  Level Indianapolis Center
12:09PM 39.3911 -85.7425 174° South 160 184 8,100  Level Indianapolis Center
12:10PM 39.3464 -85.7386 176° South 159 183 8,100  Level Indianapolis Center
12:11PM 39.2939 -85.7314 174° South 159 183 8,100  Level Indianapolis Center
12:12PM 39.2492 -85.7250 174° South 160 184 8,100  Level Indianapolis Center
12:13PM 39.2053 -85.7194 174° South 160 184 8,100  Level Indianapolis Center
12:14PM 39.1611 -85.7139 174° South 159 183 8,100  Level Indianapolis Center
12:15PM 39.1167 -85.7075 174° South 160 184 8,100  Level Indianapolis Center
12:16PM 39.0717 -85.7019 175° South 161 185 8,100  Level Indianapolis Center
12:17PM 39.0269 -85.6969 175° South 162 186 8,100  Level Indianapolis Center
12:18PM 38.9739 -85.6892 173° South 160 184 8,100  Level Indianapolis Center
12:19PM 38.9289 -85.6833 174° South 161 185 8,100  Level Indianapolis Center
12:20PM 38.8883 -85.6608 157° South 176 203 8,100  Level Indianapolis Center
12:21PM 38.8528 -85.6225 140° Southeast 171 197 8,100  Level Indianapolis Center
12:22PM 38.8167 -85.5856 141° Southeast 168 193 8,100  Level Indianapolis Center
12:23PM 38.7806 -85.5461 140° Southeast 171 197 8,100  Level Indianapolis Center
12:24PM 38.7453 -85.5069 139° Southeast 170 196 8,100  Level Indianapolis Center
12:25PM 38.7014 -85.4614 141° Southeast 170 196 8,100  Level Indianapolis Center
12:26PM 38.6653 -85.4233 141° Southeast 169 194 8,100  Level Indianapolis Center
12:27PM 38.6319 -85.3875 140° Southeast 167 192 8,100  Level Indianapolis Center
12:28PM 38.5953 -85.3475 140° Southeast 171 197 8,100  Level Indianapolis Center
12:29PM 38.5592 -85.3089 140° Southeast 169 194 8,100  Level Indianapolis Center
12:31PM 38.5197 -85.2572 134° Southeast 169 194 8,100  Level Indianapolis Center
12:32PM 38.4908 -85.2183 133° Southeast 177 204 8,100  Level Indianapolis Center
12:33PM 38.4519 -85.1636 132° Southeast 175 201 8,100  Level Indianapolis Center
12:34PM 38.4183 -85.1183 133° Southeast 176 203 8,100  Level Indianapolis Center
12:35PM 38.3836 -85.0733 135° Southeast 177 204 8,100  Level Indianapolis Center
12:36PM 38.3494 -85.0275 134° Southeast 178 205 8,100  Level Indianapolis Center
12:37PM 38.3175 -84.9814 131° Southeast 175 201 8,100  Level Indianapolis Center
12:38PM 38.2828 -84.9372 135° Southeast 175 201 8,100  Level Indianapolis Center
12:39PM 38.2450 -84.8864 133° Southeast 171 197 8,100  Level Indianapolis Center
12:40PM 38.2133 -84.8425 133° Southeast 169 194 8,100  Level Indianapolis Center
12:41PM 38.1822 -84.8031 135° Southeast 161 185 8,100  Level Indianapolis Center
12:42PM 38.1544 -84.7617 130° Southeast 156 180 8,100  Level Indianapolis Center
12:43PM 38.1244 -84.7206 133° Southeast 156 180 8,100  Level Indianapolis Center
12:44PM 38.0914 -84.6808 137° Southeast 160 184 8,100  Level Indianapolis Center
12:45PM 38.0611 -84.6400 133° Southeast 160 184 8,100  Level Indianapolis Center
12:46PM 38.0214 -84.6011 142° Southeast 155 178 8,100  Level Indianapolis Center
12:47PM 37.9797 -84.5836 162° South 155 178 8,100  Level Indianapolis Center
12:48PM 37.9417 -84.5694 164° South 145 167 8,100  Level Indianapolis Center
12:49PM 37.9053 -84.5428 150° Southeast 150 173 8,100  Level Indianapolis Center
12:50PM 37.8683 -84.5086 144° Southeast 160 184 8,100  Level Indianapolis Center
12:51PM 37.8322 -84.4733 142° Southeast 163 188 8,100  Level Indianapolis Center
12:52PM 37.7867 -84.4419 151° Southeast 161 185 8,100 -60 Level Indianapolis Center
12:53PM 37.7428 -84.4339 172° South 159 183 8,000  Descending Indianapolis Center
12:54PM 37.7000 -84.4403 187° South 155 178 8,100  Climbing Indianapolis Center
12:55PM 37.6589 -84.4483 189° South 151 174 8,100  Level Indianapolis Center
12:56PM 37.6147 -84.4522 184° South 156 180 8,100  Level Indianapolis Center
12:57PM 37.5714 -84.4544 182° South 155 178 8,200  Climbing Indianapolis Center
12:58PM 37.5219 -84.4589 184° South 154 177 8,200  Level Indianapolis Center
12:59PM 37.4825 -84.4708 194° South 147 169 8,200 -60 Level Indianapolis Center
01:00PM 37.4414 -84.4839 194° South 149 171 8,100  Descending Indianapolis Center
01:01PM 37.3997 -84.4975 195° South 153 176 8,200  Climbing Indianapolis Center
01:02PM 37.3611 -84.5094 194° South 146 168 8,100  Descending Indianapolis Center
01:03PM 37.3211 -84.5219 194° South 146 168 8,200  Climbing Indianapolis Center
01:04PM 37.2758 -84.5356 193° South 144 166 8,100 -60 Descending Indianapolis Center
01:06PM 37.2353 -84.5483 194° South 148 170 8,100  Level Indianapolis Center
01:07PM 37.1944 -84.5594 192° South 150 173 8,100  Level Indianapolis Center
01:08PM 37.1564 -84.5725 195° South 145 167 8,200  Climbing Indianapolis Center
01:09PM 37.1153 -84.5842 193° South 149 171 8,100 -60 Descending Indianapolis Center
01:10PM 37.0683 -84.5989 194° South 149 171 8,100  Level Indianapolis Center
01:11PM 37.0322 -84.6108 195° South 137 158 8,200  Climbing Indianapolis Center
01:12PM 36.9950 -84.6217 193° South 137 158 8,100 -60 Descending Indianapolis Center
01:13PM 36.9556 -84.6350 195° South 142 163 8,100  Level Indianapolis Center
01:14PM 36.9167 -84.6464 193° South 144 166 8,200  Climbing Indianapolis Center
01:15PM 36.8769 -84.6583 194° South 146 168 8,100 -60 Descending Indianapolis Center
01:16PM 36.8375 -84.6694 193° South 145 167 8,100  Level Indianapolis Center
01:17PM 36.7967 -84.6814 193° South 149 171 8,100  Level Indianapolis Center
01:18PM 36.7469 -84.6964 194° South 151 174 8,200  Climbing Indianapolis Center
01:19PM 36.7050 -84.7097 194° South 155 178 8,100  Descending Indianapolis Center
01:20PM 36.6644 -84.7214 193° South 151 174 8,200  Climbing Indianapolis Center
01:21PM 36.6231 -84.7339 194° South 151 174 8,100 -60 Descending Indianapolis Center
01:22PM 36.5811 -84.7461 193° South 154 177 8,100  Level Indianapolis Center
01:23PM 36.5389 -84.7597 195° South 156 180 8,100  Level Indianapolis Center
01:24PM 36.4881 -84.7750 194° South 158 182 8,100  Level Indianapolis Center
01:25PM 36.4469 -84.7869 193° South 154 177 8,100  Level Indianapolis Center
01:27PM 36.3889 -84.8003 190° South 151 174 8,100 -300 Level Indianapolis Center
01:28PM 36.3964 -84.7453 80° East 172 198 7,500 -600 Descending Indianapolis Center
01:29PM 36.4194 -84.6897 63° Northeast 179 206 6,900 -600 Descending Indianapolis Center
01:30PM 36.4400 -84.6322 66° East 180 207 6,300 -720 Descending Indianapolis Center
01:31PM 36.4569 -84.5744 70° East 179 206 5,500 -960 Descending Indianapolis Center
01:32PM 36.4197 -84.5828 190° South 149 171 4,400 -480 Descending Indianapolis Center
01:33PM 36.3917 -84.6042 212° Southwest 132 152 4,600 180 Climbing Indianapolis Center
01:34PM 36.3628 -84.6142 196° South 112 129 4,800  Climbing Indianapolis Center
01:35PM 36.3267 -84.6336 203° Southwest 132 152 4,600 -120 Descending Indianapolis Center
01:36PM 36.2944 -84.6603 214° Southwest 139 160 4,600  Level Indianapolis Center
01:37PM 36.2725 -84.6947 232° Southwest 140 161 4,600  Level Indianapolis Center
01:38PM 36.2989 -84.7247 318° Northwest 135 155 4,600  Level Indianapolis Center
01:39PM 36.3281 -84.7564 319° Northwest 124 143 4,700 -360 Climbing Indianapolis Center
01:40PM 36.3597 -84.7225 41° Northeast 152 175 3,900 -720 Descending Indianapolis Center
01:41PM 36.3761 -84.6856 61° Northeast 137 158 3,300 -600 Descending Indianapolis Center
01:42PM 36.4036 -84.6497 46° Northeast 138 159 2,700 -600 Descending Indianapolis Center